createdAt,value
2018-09-27T00:01:33.321Z,3.90
2018-09-27T00:04:02.734Z,3.90
2018-09-27T00:06:32.846Z,3.90
2018-09-27T00:09:02.735Z,3.80
2018-09-27T00:11:32.093Z,3.90
2018-09-27T00:14:00.937Z,3.80
2018-09-27T00:16:29.932Z,3.80
2018-09-27T00:18:59.401Z,3.80
2018-09-27T00:21:29.354Z,3.80
2018-09-27T00:23:58.985Z,3.70
2018-09-27T00:26:27.924Z,3.60
2018-09-27T00:28:57.404Z,3.70
2018-09-27T00:31:27.505Z,3.70
2018-09-27T00:33:56.906Z,3.70
2018-09-27T00:36:27.108Z,3.60
2018-09-27T00:38:56.062Z,3.60
2018-09-27T00:41:25.348Z,3.60
2018-09-27T00:43:55.085Z,3.50
2018-09-27T00:46:25.099Z,3.50
2018-09-27T00:48:55.642Z,3.50
2018-09-27T00:51:24.154Z,3.50
2018-09-27T00:53:52.675Z,3.40
2018-09-27T00:56:21.211Z,3.50
2018-09-27T00:58:49.743Z,3.40
2018-09-27T01:01:18.337Z,3.40
2018-09-27T01:03:46.902Z,3.40
2018-09-27T01:06:15.914Z,3.40
2018-09-27T01:08:44.445Z,3.40
2018-09-27T01:11:12.941Z,3.40
2018-09-27T01:13:41.479Z,3.40
2018-09-27T01:16:10.182Z,3.40
2018-09-27T01:18:38.831Z,3.40
2018-09-27T01:21:07.591Z,3.40
2018-09-27T01:23:36.132Z,3.30
2018-09-27T01:26:04.733Z,3.30
2018-09-27T01:28:33.388Z,3.20
2018-09-27T01:31:02.007Z,3.10
2018-09-27T01:33:30.560Z,3.10
2018-09-27T01:35:59.181Z,3.10
2018-09-27T01:38:27.729Z,3.10
2018-09-27T01:40:56.359Z,3.10
2018-09-27T01:43:25.177Z,3.10
2018-09-27T01:45:53.886Z,3.10
2018-09-27T01:48:22.397Z,3.10
2018-09-27T01:50:50.889Z,3.00
2018-09-27T01:53:19.410Z,3.00
2018-09-27T01:55:48.069Z,3.00
2018-09-27T01:58:16.567Z,3.00
2018-09-27T02:00:45.185Z,3.00
2018-09-27T02:03:13.672Z,2.90
2018-09-27T02:05:42.393Z,2.90
2018-09-27T02:08:10.951Z,2.80
2018-09-27T02:10:39.481Z,2.90
2018-09-27T02:13:07.966Z,2.90
2018-09-27T02:15:36.561Z,2.90
2018-09-27T02:18:05.189Z,2.90
2018-09-27T02:20:33.740Z,2.90
2018-09-27T02:23:02.314Z,2.80
2018-09-27T02:25:30.871Z,2.80
2018-09-27T02:27:59.366Z,2.80
2018-09-27T02:30:27.862Z,2.80
2018-09-27T02:32:56.389Z,2.70
2018-09-27T02:35:24.914Z,2.70
2018-09-27T02:37:53.401Z,2.70
2018-09-27T02:40:21.901Z,2.60
2018-09-27T02:42:50.556Z,2.60
2018-09-27T02:45:19.153Z,2.60
2018-09-27T02:47:47.620Z,2.60
2018-09-27T02:50:16.205Z,2.60
2018-09-27T02:52:44.692Z,2.60
2018-09-27T02:55:13.251Z,2.60
2018-09-27T02:57:41.831Z,2.60
2018-09-27T03:00:10.499Z,2.50
2018-09-27T03:02:39.100Z,2.50
2018-09-27T03:05:08.024Z,2.60
2018-09-27T03:07:37.140Z,2.60
2018-09-27T03:10:06.401Z,2.60
2018-09-27T03:12:34.880Z,2.50
2018-09-27T03:15:03.498Z,2.50
2018-09-27T03:17:32.121Z,2.40
2018-09-27T03:20:01.163Z,2.40
2018-09-27T03:22:29.681Z,2.40
2018-09-27T03:24:58.184Z,2.50
2018-09-27T03:27:26.861Z,2.40
2018-09-27T03:29:55.456Z,2.40
2018-09-27T03:32:24.073Z,2.40
2018-09-27T03:34:52.572Z,2.40
2018-09-27T03:37:21.232Z,2.30
2018-09-27T03:39:49.785Z,2.30
2018-09-27T03:42:18.230Z,2.30
2018-09-27T03:44:46.775Z,2.30
2018-09-27T03:47:15.340Z,2.30
2018-09-27T03:49:43.976Z,2.30
2018-09-27T03:52:12.485Z,2.30
2018-09-27T03:54:41.024Z,2.30
2018-09-27T03:57:09.500Z,2.30
2018-09-27T03:59:38.101Z,2.30
2018-09-27T04:02:07.151Z,2.30
2018-09-27T04:04:35.781Z,2.30
2018-09-27T04:07:04.643Z,2.20
2018-09-27T04:09:33.202Z,2.20
2018-09-27T04:12:01.793Z,2.10
2018-09-27T04:14:30.476Z,2.20
2018-09-27T04:16:59.575Z,2.10
2018-09-27T04:19:28.138Z,2.10
2018-09-27T04:21:56.718Z,2.10
2018-09-27T04:24:25.379Z,2.10
2018-09-27T04:26:53.857Z,2.10
2018-09-27T04:29:22.401Z,2.00
2018-09-27T04:31:51.040Z,2.00
2018-09-27T04:34:19.826Z,2.00
2018-09-27T04:36:48.341Z,2.00
2018-09-27T04:39:17.030Z,2.00
2018-09-27T04:41:45.757Z,2.00
2018-09-27T04:44:14.291Z,2.00
2018-09-27T04:46:42.828Z,2.00
2018-09-27T04:49:11.331Z,2.00
2018-09-27T04:51:39.929Z,1.90
2018-09-27T04:54:08.644Z,1.90
2018-09-27T04:56:37.298Z,1.90
2018-09-27T04:59:06.827Z,2.00
2018-09-27T05:01:35.389Z,2.00
2018-09-27T05:04:04.023Z,2.00
2018-09-27T05:06:32.549Z,2.00
2018-09-27T05:09:01.137Z,1.90
2018-09-27T05:11:30.391Z,1.90
2018-09-27T05:13:58.888Z,1.90
2018-09-27T05:16:27.451Z,1.90
2018-09-27T05:18:56.006Z,1.90
2018-09-27T05:21:24.710Z,2.00
2018-09-27T05:23:53.152Z,2.00
2018-09-27T05:26:21.805Z,1.90
2018-09-27T05:28:50.351Z,1.90
2018-09-27T05:31:19.030Z,1.90
2018-09-27T05:33:47.863Z,2.00
2018-09-27T05:36:16.560Z,2.00
2018-09-27T05:38:45.098Z,2.00
2018-09-27T05:41:13.664Z,2.00
2018-09-27T05:43:42.169Z,2.00
2018-09-27T05:46:10.846Z,2.00
2018-09-27T05:48:39.554Z,2.10
2018-09-27T05:51:08.488Z,2.10
2018-09-27T05:53:37.069Z,2.20
2018-09-27T05:56:06.006Z,2.20
2018-09-27T05:58:34.608Z,2.30
2018-09-27T06:01:03.898Z,2.30
2018-09-27T06:03:32.553Z,2.50
2018-09-27T06:06:01.750Z,2.50
2018-09-27T06:08:30.428Z,2.60
2018-09-27T06:10:58.949Z,2.70
2018-09-27T06:13:27.464Z,2.80
2018-09-27T06:15:55.975Z,2.80
2018-09-27T06:18:24.681Z,2.90
2018-09-27T06:20:53.424Z,3.00
2018-09-27T06:23:22.041Z,3.00
2018-09-27T06:25:50.569Z,3.10
2018-09-27T06:28:19.165Z,3.10
2018-09-27T06:30:47.731Z,3.20
2018-09-27T06:33:16.521Z,3.20
2018-09-27T06:35:45.078Z,3.30
2018-09-27T06:38:13.630Z,3.40
2018-09-27T06:40:42.334Z,3.60
2018-09-27T06:43:10.828Z,3.70
2018-09-27T06:45:39.378Z,3.80
2018-09-27T06:48:07.972Z,4.00
2018-09-27T06:50:36.646Z,4.00
2018-09-27T06:53:05.190Z,4.10
2018-09-27T06:55:33.879Z,4.40
2018-09-27T06:58:02.382Z,4.50
2018-09-27T07:00:30.898Z,4.60
2018-09-27T07:02:59.396Z,5.00
2018-09-27T07:05:28.011Z,5.10
2018-09-27T07:07:56.670Z,5.40
2018-09-27T07:10:25.320Z,5.60
2018-09-27T07:12:53.904Z,5.80
2018-09-27T07:15:22.414Z,5.90
2018-09-27T07:17:51.114Z,6.10
2018-09-27T07:20:19.678Z,6.50
2018-09-27T07:22:48.288Z,6.70
2018-09-27T07:25:16.923Z,7.00
2018-09-27T07:27:45.385Z,7.20
2018-09-27T07:30:14.118Z,7.40
2018-09-27T07:32:42.760Z,7.70
2018-09-27T07:35:11.225Z,7.90
2018-09-27T07:37:39.893Z,8.10
2018-09-27T07:40:08.505Z,8.20
2018-09-27T07:42:37.103Z,8.50
2018-09-27T07:45:05.701Z,8.60
2018-09-27T07:47:34.313Z,8.80
2018-09-27T07:50:03.017Z,8.90
2018-09-27T07:52:31.593Z,9.10
2018-09-27T07:55:00.145Z,9.20
2018-09-27T07:57:28.682Z,9.40
2018-09-27T07:59:57.185Z,9.60
2018-09-27T08:02:25.886Z,9.80
2018-09-27T08:04:54.373Z,10.00
2018-09-27T08:07:23.049Z,10.20
2018-09-27T08:09:51.704Z,10.50
2018-09-27T08:12:20.294Z,10.60
2018-09-27T08:14:48.830Z,11.00
2018-09-27T08:17:17.501Z,11.20
2018-09-27T08:19:45.960Z,11.60
2018-09-27T08:22:14.491Z,12.10
2018-09-27T08:24:43.033Z,12.50
2018-09-27T08:27:11.564Z,12.90
2018-09-27T08:29:40.218Z,13.30
2018-09-27T08:32:08.716Z,13.60
2018-09-27T08:34:37.306Z,13.90
2018-09-27T08:37:05.882Z,14.20
2018-09-27T08:39:34.469Z,14.60
2018-09-27T08:42:03.123Z,14.90
2018-09-27T08:44:31.743Z,15.20
2018-09-27T08:47:00.312Z,15.50
2018-09-27T08:49:28.979Z,15.80
2018-09-27T08:51:57.651Z,16.10
2018-09-27T08:54:26.623Z,16.60
2018-09-27T08:56:55.511Z,16.80
2018-09-27T08:59:24.102Z,17.20
2018-09-27T09:01:52.744Z,17.50
2018-09-27T09:04:21.295Z,17.80
2018-09-27T09:06:49.897Z,18.00
2018-09-27T09:09:18.459Z,18.40
2018-09-27T09:11:47.140Z,18.70
2018-09-27T09:14:15.693Z,19.00
2018-09-27T09:19:12.673Z,19.40
2018-09-27T09:21:41.384Z,19.60
2018-09-27T09:24:09.897Z,19.60
2018-09-27T09:26:38.562Z,19.60
2018-09-27T09:29:07.734Z,19.90
2018-09-27T09:31:36.261Z,20.10
2018-09-27T09:34:04.868Z,20.20
2018-09-27T09:36:33.520Z,20.50
2018-09-27T09:39:02.219Z,21.00
2018-09-27T09:53:52.882Z,22.00
2018-09-27T09:56:21.609Z,22.00
2018-09-27T09:58:50.281Z,22.20
2018-09-27T10:01:18.941Z,22.60
2018-09-27T10:03:47.713Z,22.80
2018-09-27T10:06:16.481Z,22.90
2018-09-27T10:08:45.291Z,22.80
2018-09-27T10:11:13.881Z,22.70
2018-09-27T10:13:42.597Z,22.60
2018-09-27T10:16:11.230Z,22.60
2018-09-27T10:18:39.910Z,22.70
2018-09-27T10:21:08.541Z,22.80
2018-09-27T10:23:37.475Z,23.10
2018-09-27T10:26:06.125Z,22.90
2018-09-27T10:28:34.835Z,23.00
2018-09-27T10:31:03.741Z,23.30
2018-09-27T10:33:32.338Z,23.30
2018-09-27T10:36:01.015Z,23.40
2018-09-27T10:38:29.603Z,23.30
2018-09-27T10:40:58.255Z,23.50
2018-09-27T10:43:26.794Z,23.50
2018-09-27T10:45:55.406Z,23.70
2018-09-27T10:48:23.992Z,23.80
2018-09-27T10:50:53.173Z,23.20
2018-09-27T10:53:22.261Z,23.50
2018-09-27T10:55:50.859Z,23.40
2018-09-27T10:58:19.565Z,23.50
2018-09-27T11:00:48.220Z,23.60
2018-09-27T11:03:16.837Z,23.90
2018-09-27T11:05:45.591Z,23.60
2018-09-27T11:08:14.280Z,23.40
2018-09-27T11:10:42.930Z,23.50
2018-09-27T11:13:11.564Z,23.90
2018-09-27T11:15:40.344Z,23.90
2018-09-27T11:18:08.897Z,23.90
2018-09-27T11:20:37.640Z,23.70
2018-09-27T11:23:07.012Z,23.90
2018-09-27T11:25:35.671Z,24.20
2018-09-27T11:28:04.384Z,24.10
2018-09-27T11:30:34.343Z,24.30
2018-09-27T11:33:03.326Z,24.40
2018-09-27T11:35:32.029Z,24.30
2018-09-27T11:38:00.578Z,24.30
2018-09-27T11:40:29.290Z,24.60
2018-09-27T11:42:57.905Z,24.50
2018-09-27T11:45:26.413Z,24.50
2018-09-27T11:47:54.981Z,24.50
2018-09-27T11:50:23.639Z,24.40
2018-09-27T11:52:52.189Z,24.20
2018-09-27T11:55:20.787Z,24.10
2018-09-27T11:57:49.345Z,24.00
2018-09-27T12:00:18.751Z,24.30
2018-09-27T12:02:47.313Z,24.30
2018-09-27T12:05:16.661Z,23.90
2018-09-27T12:07:46.173Z,24.10
2018-09-27T12:10:14.777Z,24.40
2018-09-27T12:12:44.717Z,24.30
2018-09-27T12:15:13.393Z,24.50
2018-09-27T12:17:42.001Z,24.40
2018-09-27T12:20:10.721Z,24.70
2018-09-27T12:22:39.365Z,24.70
2018-09-27T12:25:07.943Z,24.90
2018-09-27T12:27:36.670Z,25.30
2018-09-27T12:30:05.939Z,25.40
2018-09-27T12:32:34.619Z,25.10
2018-09-27T12:35:03.326Z,25.30
2018-09-27T12:37:32.901Z,25.30
2018-09-27T12:40:02.109Z,25.30
2018-09-27T12:42:31.117Z,25.30
2018-09-27T12:44:59.719Z,25.60
2018-09-27T12:47:28.500Z,25.80
2018-09-27T12:49:57.136Z,25.80
2018-09-27T12:52:26.029Z,25.70
2018-09-27T12:54:54.695Z,25.60
2018-09-27T12:57:23.269Z,25.20
2018-09-27T12:59:51.996Z,25.30
2018-09-27T13:02:21.339Z,25.60
2018-09-27T13:04:50.025Z,25.00
2018-09-27T13:07:19.506Z,25.30
2018-09-27T13:09:48.370Z,25.00
2018-09-27T13:12:17.448Z,25.00
2018-09-27T13:14:46.082Z,25.30
2018-09-27T13:17:14.755Z,25.50
2018-09-27T13:19:44.081Z,25.40
2018-09-27T13:22:12.603Z,25.50
2018-09-27T13:24:41.232Z,25.70
2018-09-27T13:27:09.826Z,25.30
2018-09-27T13:29:38.641Z,25.60
2018-09-27T13:32:07.306Z,25.80
2018-09-27T13:34:35.965Z,25.80
2018-09-27T13:37:04.616Z,26.20
2018-09-27T13:39:33.427Z,26.50
2018-09-27T13:42:02.131Z,26.60
2018-09-27T13:44:31.651Z,26.10
2018-09-27T13:47:00.222Z,25.80
2018-09-27T13:49:29.078Z,25.90
2018-09-27T13:51:57.875Z,25.80
2018-09-27T13:54:26.657Z,26.10
2018-09-27T13:56:55.405Z,26.10
2018-09-27T13:59:24.045Z,25.80
2018-09-27T14:01:52.642Z,25.70
2018-09-27T14:04:21.434Z,25.80
2018-09-27T14:06:50.168Z,26.00
2018-09-27T14:09:18.793Z,25.70
2018-09-27T14:11:47.493Z,25.60
2018-09-27T14:14:16.045Z,25.60
2018-09-27T14:16:44.763Z,25.40
2018-09-27T14:19:13.661Z,25.10
2018-09-27T14:21:42.314Z,24.90
2018-09-27T14:24:10.998Z,24.80
2018-09-27T14:26:39.681Z,24.60
2018-09-27T14:29:08.377Z,24.60
2018-09-27T14:31:37.069Z,24.50
2018-09-27T14:34:05.741Z,24.30
2018-09-27T14:36:34.466Z,24.00
2018-09-27T14:39:03.138Z,23.80
2018-09-27T14:41:31.903Z,23.70
2018-09-27T14:44:00.481Z,23.60
2018-09-27T14:46:29.055Z,23.50
2018-09-27T14:48:57.661Z,23.40
2018-09-27T14:51:26.273Z,23.20
2018-09-27T14:53:55.111Z,23.10
2018-09-27T14:56:24.469Z,22.90
2018-09-27T14:58:53.653Z,22.70
2018-09-27T15:01:22.397Z,22.70
2018-09-27T15:03:51.004Z,22.60
2018-09-27T15:06:19.689Z,22.40
2018-09-27T15:08:48.293Z,22.40
2018-09-27T15:11:16.908Z,22.30
2018-09-27T15:13:46.338Z,22.10
2018-09-27T15:16:15.244Z,22.10
2018-09-27T15:18:43.984Z,22.00
2018-09-27T15:21:12.634Z,21.80
2018-09-27T15:23:42.527Z,21.70
2018-09-27T15:26:11.220Z,21.60
2018-09-27T15:28:39.942Z,21.50
2018-09-27T15:31:08.755Z,21.50
2018-09-27T15:33:37.474Z,21.40
2018-09-27T15:36:06.366Z,21.30
2018-09-27T15:38:35.557Z,21.30
2018-09-27T15:41:04.157Z,21.20
2018-09-27T15:43:32.748Z,21.10
2018-09-27T15:46:01.401Z,20.90
2018-09-27T15:48:30.090Z,20.80
2018-09-27T15:50:58.889Z,20.80
2018-09-27T15:53:27.517Z,20.60
2018-09-27T15:55:56.744Z,20.40
2018-09-27T15:58:25.525Z,20.40
2018-09-27T16:00:54.202Z,20.20
2018-09-27T16:03:23.935Z,20.20
2018-09-27T16:05:52.664Z,20.20
2018-09-27T16:08:21.445Z,20.10
2018-09-27T16:10:50.528Z,19.90
2018-09-27T16:13:19.427Z,19.70
2018-09-27T16:15:48.253Z,19.50
2018-09-27T16:18:16.853Z,19.40
2018-09-27T16:20:45.688Z,19.40
2018-09-27T16:23:14.696Z,19.20
2018-09-27T16:25:43.348Z,19.00
2018-09-27T16:28:12.005Z,18.80
2018-09-27T16:30:40.642Z,18.60
2018-09-27T16:33:09.342Z,18.50
2018-09-27T16:35:38.079Z,18.30
2018-09-27T16:38:06.841Z,18.00
2018-09-27T16:40:35.440Z,17.90
2018-09-27T16:43:04.808Z,17.80
2018-09-27T16:45:33.348Z,17.70
2018-09-27T16:48:02.471Z,17.60
2018-09-27T16:50:31.268Z,17.40
2018-09-27T16:53:00.093Z,17.30
2018-09-27T16:55:28.954Z,17.20
2018-09-27T16:57:57.573Z,17.00
2018-09-27T17:00:26.465Z,16.80
2018-09-27T17:02:55.381Z,16.50
2018-09-27T17:05:24.053Z,16.30
2018-09-27T17:07:52.833Z,16.10
2018-09-27T17:10:21.485Z,16.00
2018-09-27T17:12:50.199Z,15.90
2018-09-27T17:15:18.897Z,15.70
2018-09-27T17:17:47.554Z,15.50
2018-09-27T17:20:16.419Z,15.30
2018-09-27T17:22:46.493Z,15.10
2018-09-27T17:25:15.243Z,14.90
2018-09-27T17:27:43.803Z,14.90
2018-09-27T17:30:12.397Z,14.80
2018-09-27T17:32:41.090Z,14.70
2018-09-27T17:35:09.738Z,14.60
2018-09-27T17:37:38.481Z,14.40
2018-09-27T17:40:07.855Z,14.30
2018-09-27T17:42:36.548Z,14.20
2018-09-27T17:45:05.278Z,14.00
2018-09-27T17:47:33.989Z,13.90
2018-09-27T17:50:02.946Z,13.80
2018-09-27T17:52:31.660Z,13.70
2018-09-27T17:55:00.215Z,13.60
2018-09-27T17:57:28.901Z,13.40
2018-09-27T17:59:57.429Z,13.30
2018-09-27T18:02:26.157Z,13.20
2018-09-27T18:04:54.956Z,13.00
2018-09-27T18:07:23.620Z,13.00
2018-09-27T18:09:52.615Z,12.90
2018-09-27T18:12:21.360Z,12.70
2018-09-27T18:14:50.062Z,12.60
2018-09-27T18:17:19.470Z,12.50
2018-09-27T18:19:48.174Z,12.50
2018-09-27T18:22:16.929Z,12.40
2018-09-27T18:24:45.655Z,12.20
2018-09-27T18:27:14.661Z,12.10
2018-09-27T18:29:43.361Z,12.00
2018-09-27T18:32:12.605Z,11.90
2018-09-27T18:34:41.366Z,11.80
2018-09-27T18:37:10.597Z,11.70
2018-09-27T18:39:39.493Z,11.60
2018-09-27T18:42:08.193Z,11.50
2018-09-27T18:44:37.106Z,11.50
2018-09-27T18:47:05.742Z,11.40
2018-09-27T18:49:34.431Z,11.30
2018-09-27T18:52:03.007Z,11.30
2018-09-27T18:54:32.349Z,11.20
2018-09-27T18:57:01.034Z,11.10
2018-09-27T18:59:29.688Z,11.00
2018-09-27T19:01:58.340Z,10.90
2018-09-27T19:04:27.004Z,10.80
2018-09-27T19:06:55.654Z,10.70
2018-09-27T19:09:24.438Z,10.60
2018-09-27T19:11:53.150Z,10.50
2018-09-27T19:14:21.782Z,10.50
2018-09-27T19:16:51.104Z,10.40
2018-09-27T19:19:19.690Z,10.40
2018-09-27T19:21:48.414Z,10.30
2018-09-27T19:24:16.987Z,10.20
2018-09-27T19:26:45.972Z,10.10
2018-09-27T19:29:14.830Z,10.00
2018-09-27T19:31:43.642Z,10.00
2018-09-27T19:34:12.218Z,9.90
2018-09-27T19:36:40.913Z,9.80
2018-09-27T19:39:10.407Z,9.70
2018-09-27T19:41:39.410Z,9.70
2018-09-27T19:44:08.374Z,9.60
2018-09-27T19:46:37.319Z,9.50
2018-09-27T19:49:06.069Z,9.60
2018-09-27T19:51:34.763Z,9.50
2018-09-27T19:54:03.432Z,9.40
2018-09-27T19:56:32.165Z,9.30
2018-09-27T19:59:00.803Z,9.20
2018-09-27T20:01:29.926Z,9.10
2018-09-27T20:03:58.536Z,9.20
2018-09-27T20:06:27.185Z,9.10
2018-09-27T20:08:55.746Z,9.00
2018-09-27T20:11:24.382Z,9.00
2018-09-27T20:13:53.152Z,8.90
2018-09-27T20:16:22.036Z,8.90
2018-09-27T20:18:50.600Z,8.90
2018-09-27T20:21:19.346Z,8.90
2018-09-27T20:23:48.209Z,8.80
2018-09-27T20:26:17.522Z,8.70
2018-09-27T20:28:46.140Z,8.60
2018-09-27T20:31:16.113Z,8.50
2018-09-27T20:33:44.801Z,8.50
2018-09-27T20:36:13.591Z,8.40
2018-09-27T20:38:42.321Z,8.30
2018-09-27T20:41:11.026Z,8.30
2018-09-27T20:43:39.632Z,8.30
2018-09-27T20:46:08.375Z,8.30
2018-09-27T20:48:37.242Z,8.30
2018-09-27T20:51:06.178Z,8.20
2018-09-27T20:53:34.741Z,8.10
2018-09-27T20:56:03.500Z,8.10
2018-09-27T20:58:32.329Z,8.00
2018-09-27T21:01:01.046Z,8.00
2018-09-27T21:03:29.669Z,7.90
2018-09-27T21:05:58.485Z,7.90
2018-09-27T21:08:27.121Z,7.80
2018-09-27T21:10:55.661Z,7.70
2018-09-27T21:13:25.006Z,7.80
2018-09-27T21:15:53.770Z,7.70
2018-09-27T21:18:23.341Z,7.70
2018-09-27T21:20:51.941Z,7.60
2018-09-27T21:23:20.613Z,7.60
2018-09-27T21:25:49.137Z,7.50
2018-09-27T21:28:17.857Z,7.40
2018-09-27T21:30:46.654Z,7.40
2018-09-27T21:33:15.264Z,7.40
2018-09-27T21:35:44.488Z,7.30
2018-09-27T21:38:13.316Z,7.30
2018-09-27T21:40:41.871Z,7.20
2018-09-27T21:43:10.499Z,7.20
2018-09-27T21:45:39.175Z,7.10
2018-09-27T21:48:07.710Z,7.10
2018-09-27T21:50:36.256Z,7.10
2018-09-27T21:53:04.944Z,7.10
2018-09-27T21:55:33.501Z,7.00
2018-09-27T21:58:02.114Z,7.00
2018-09-27T22:00:30.710Z,7.00
2018-09-27T22:02:59.251Z,6.90
2018-09-27T22:05:27.939Z,6.90
2018-09-27T22:07:56.492Z,6.90
2018-09-27T22:10:25.304Z,6.80
2018-09-27T22:12:53.898Z,6.80
2018-09-27T22:15:22.532Z,6.70
2018-09-27T22:17:51.202Z,6.70
2018-09-27T22:20:19.873Z,6.60
2018-09-27T22:22:48.447Z,6.60
2018-09-27T22:25:17.524Z,6.60
2018-09-27T22:27:46.233Z,6.60
2018-09-27T22:30:14.773Z,6.60
2018-09-27T22:32:43.313Z,6.60
2018-09-27T22:35:12.000Z,6.50
2018-09-27T22:37:40.577Z,6.50
2018-09-27T22:40:09.234Z,6.50
2018-09-27T22:42:37.764Z,6.40
2018-09-27T22:45:06.753Z,6.40
2018-09-27T22:47:35.378Z,6.40
2018-09-27T22:50:03.962Z,6.40
2018-09-27T22:52:32.584Z,6.40
2018-09-27T22:55:01.173Z,6.40
2018-09-27T22:57:29.701Z,6.30
2018-09-27T22:59:58.461Z,6.30
2018-09-27T23:02:27.179Z,6.20
2018-09-27T23:04:55.744Z,6.20
2018-09-27T23:07:24.461Z,6.20
2018-09-27T23:09:53.005Z,6.20
2018-09-27T23:12:21.533Z,6.20
2018-09-27T23:14:50.038Z,6.10
2018-09-27T23:17:18.673Z,6.00
2018-09-27T23:19:47.538Z,6.00
2018-09-27T23:22:16.813Z,6.00
2018-09-27T23:24:45.402Z,5.90
2018-09-27T23:27:13.946Z,5.90
2018-09-27T23:29:42.621Z,5.80
2018-09-27T23:32:11.119Z,5.80
2018-09-27T23:34:39.620Z,5.70
2018-09-27T23:37:08.350Z,5.70
2018-09-27T23:39:37.013Z,5.80
2018-09-27T23:42:05.591Z,5.70
2018-09-27T23:44:34.151Z,5.60
2018-09-27T23:47:02.765Z,5.60
2018-09-27T23:49:31.382Z,5.60
2018-09-27T23:52:00.411Z,5.60
2018-09-27T23:54:29.000Z,5.60
2018-09-27T23:56:58.297Z,5.60
2018-09-27T23:59:26.929Z,5.60
